Victory Gardens, New Jersey
Current Conditions -  °F | °C
As of 8:45 AM on Saturday 22 Nov 2014 (Local Time) from KMMU Reporting Station
Few Clouds Few Clouds  
Wind Chill: 20°   Ceiling: Unl
Heat Index: 27°   Visibility: 15mi
Dew Point: 18°   Wind: 6mph
Humidity: 69%   Direction: 210°SSW
Pressure: 30.49"   Gusts: NA
Location:  40.9293°N, 74.5472°W
Report Text: KMMU 221345Z 21005KT 15SM FEW250 M03/M08 A3049
Loading
Personal Weather Stations






























Interactive Weather Map New forecast layout! Learn more

10-Day Weather Forecast

Advertisements
Track Severe Weather on mobile